Terminal Aerodrome Forecast
Issued by NWS

Home | Current Version | Previous Version | Text Only | Print | Product List | Glossary On
Versions: 1 2 3 4 5 6 7 8 9 10 11 12 13 14 15 16 17 18 19 20 21 22 23
305
FTUS43 KABR 151012 AAA
TAFPIR
TAF AMD
KPIR 151012Z 1510/1606 31008KT P6SM BKN200
     FM151300 33007KT P6SM OVC015
     FM151500 36016G23KT 1/2SM SN BLSN OVC007
     FM152200 34015G25KT P6SM OVC010
     FM160100 33015KT P6SM BKN040
     FM160400 31010KT P6SM SCT150=

USA.gov is the U.S. government's official web portal to all federal, state and local government web resources and services.